sensor_id;sensor_type;location;lat;lon;timestamp;P1;durP1;ratioP1;P2;durP2;ratioP2
7179;SDS011;3631;42.152;24.756;2023-04-06T00:00:51;10.23;;;8.60;;
7179;SDS011;3631;42.152;24.756;2023-04-06T00:03:53;9.87;;;8.87;;
7179;SDS011;3631;42.152;24.756;2023-04-06T00:06:56;11.10;;;8.97;;
7179;SDS011;3631;42.152;24.756;2023-04-06T00:09:48;10.47;;;9.07;;
7179;SDS011;3631;42.152;24.756;2023-04-06T00:15:51;11.77;;;9.40;;
7179;SDS011;3631;42.152;24.756;2023-04-06T00:18:59;11.87;;;9.93;;
7179;SDS011;3631;42.152;24.756;2023-04-06T00:21:56;10.37;;;9.07;;
7179;SDS011;3631;42.152;24.756;2023-04-06T00:24:45;14.17;;;10.17;;
7179;SDS011;3631;42.152;24.756;2023-04-06T00:27:40;10.00;;;9.00;;
7179;SDS011;3631;42.152;24.756;2023-04-06T00:31:02;11.60;;;9.17;;
7179;SDS011;3631;42.152;24.756;2023-04-06T00:33:45;9.67;;;8.73;;
7179;SDS011;3631;42.152;24.756;2023-04-06T00:36:46;11.87;;;9.30;;
7179;SDS011;3631;42.152;24.756;2023-04-06T00:40:01;11.57;;;9.13;;
7179;SDS011;3631;42.152;24.756;2023-04-06T00:43:12;11.90;;;9.03;;
7179;SDS011;3631;42.152;24.756;2023-04-06T00:46:12;12.67;;;9.70;;
7179;SDS011;3631;42.152;24.756;2023-04-06T00:49:13;12.37;;;9.03;;
7179;SDS011;3631;42.152;24.756;2023-04-06T00:52:02;11.40;;;9.03;;
7179;SDS011;3631;42.152;24.756;2023-04-06T00:54:49;13.83;;;9.17;;
7179;SDS011;3631;42.152;24.756;2023-04-06T00:57:50;12.73;;;9.43;;
7179;SDS011;3631;42.152;24.756;2023-04-06T01:00:46;11.07;;;9.27;;
7179;SDS011;3631;42.152;24.756;2023-04-06T01:06:57;12.37;;;9.27;;
7179;SDS011;3631;42.152;24.756;2023-04-06T01:09:55;10.93;;;9.17;;
7179;SDS011;3631;42.152;24.756;2023-04-06T01:12:51;11.53;;;9.20;;
7179;SDS011;3631;42.152;24.756;2023-04-06T01:15:52;10.80;;;8.60;;
7179;SDS011;3631;42.152;24.756;2023-04-06T01:19:07;14.37;;;10.00;;
7179;SDS011;3631;42.152;24.756;2023-04-06T01:22:10;10.30;;;8.77;;
7179;SDS011;3631;42.152;24.756;2023-04-06T01:25:09;11.53;;;9.73;;
7179;SDS011;3631;42.152;24.756;2023-04-06T01:28:14;10.73;;;9.37;;
7179;SDS011;3631;42.152;24.756;2023-04-06T01:31:08;14.40;;;9.87;;
7179;SDS011;3631;42.152;24.756;2023-04-06T01:34:09;10.03;;;9.00;;
7179;SDS011;3631;42.152;24.756;2023-04-06T01:37:08;11.93;;;9.27;;
7179;SDS011;3631;42.152;24.756;2023-04-06T01:40:15;10.07;;;8.80;;
7179;SDS011;3631;42.152;24.756;2023-04-06T01:43:08;10.50;;;8.87;;
7179;SDS011;3631;42.152;24.756;2023-04-06T01:46:15;9.77;;;8.77;;
7179;SDS011;3631;42.152;24.756;2023-04-06T01:49:07;10.73;;;9.50;;
7179;SDS011;3631;42.152;24.756;2023-04-06T01:51:54;12.47;;;9.67;;
7179;SDS011;3631;42.152;24.756;2023-04-06T01:58:07;10.77;;;8.80;;
7179;SDS011;3631;42.152;24.756;2023-04-06T02:01:00;9.27;;;8.30;;
7179;SDS011;3631;42.152;24.756;2023-04-06T02:03:56;11.60;;;9.17;;
7179;SDS011;3631;42.152;24.756;2023-04-06T02:06:50;10.33;;;9.23;;
7179;SDS011;3631;42.152;24.756;2023-04-06T02:09:53;10.20;;;8.87;;
7179;SDS011;3631;42.152;24.756;2023-04-06T02:12:55;10.07;;;9.03;;
7179;SDS011;3631;42.152;24.756;2023-04-06T02:16:07;9.53;;;8.33;;
7179;SDS011;3631;42.152;24.756;2023-04-06T02:19:07;10.77;;;8.80;;
7179;SDS011;3631;42.152;24.756;2023-04-06T02:21:57;11.90;;;8.93;;
7179;SDS011;3631;42.152;24.756;2023-04-06T02:24:59;13.30;;;9.67;;
7179;SDS011;3631;42.152;24.756;2023-04-06T02:28:03;10.90;;;9.67;;
7179;SDS011;3631;42.152;24.756;2023-04-06T02:34:35;9.77;;;8.77;;
7179;SDS011;3631;42.152;24.756;2023-04-06T02:37:37;10.93;;;9.13;;
7179;SDS011;3631;42.152;24.756;2023-04-06T02:40:33;10.63;;;9.00;;
7179;SDS011;3631;42.152;24.756;2023-04-06T02:43:21;11.37;;;8.63;;
7179;SDS011;3631;42.152;24.756;2023-04-06T02:46:21;11.07;;;9.20;;
7179;SDS011;3631;42.152;24.756;2023-04-06T02:49:14;15.03;;;10.03;;
7179;SDS011;3631;42.152;24.756;2023-04-06T02:52:13;11.40;;;9.73;;
7179;SDS011;3631;42.152;24.756;2023-04-06T02:54:56;11.90;;;9.47;;
7179;SDS011;3631;42.152;24.756;2023-04-06T02:58:03;13.87;;;10.10;;
7179;SDS011;3631;42.152;24.756;2023-04-06T03:01:09;16.53;;;10.63;;
7179;SDS011;3631;42.152;24.756;2023-04-06T03:03:50;13.90;;;10.80;;
7179;SDS011;3631;42.152;24.756;2023-04-06T03:06:46;15.77;;;11.07;;
7179;SDS011;3631;42.152;24.756;2023-04-06T03:09:41;15.93;;;12.00;;
7179;SDS011;3631;42.152;24.756;2023-04-06T03:12:24;13.03;;;10.30;;
7179;SDS011;3631;42.152;24.756;2023-04-06T03:15:16;12.77;;;10.17;;
7179;SDS011;3631;42.152;24.756;2023-04-06T03:18:17;11.70;;;10.10;;
7179;SDS011;3631;42.152;24.756;2023-04-06T03:21:03;16.50;;;10.87;;
7179;SDS011;3631;42.152;24.756;2023-04-06T03:23:36;14.53;;;10.83;;
7179;SDS011;3631;42.152;24.756;2023-04-06T03:26:16;14.37;;;10.77;;
7179;SDS011;3631;42.152;24.756;2023-04-06T03:28:48;15.93;;;11.37;;
7179;SDS011;3631;42.152;24.756;2023-04-06T03:31:18;17.63;;;11.17;;
7179;SDS011;3631;42.152;24.756;2023-04-06T03:34:03;20.57;;;11.67;;
7179;SDS011;3631;42.152;24.756;2023-04-06T03:36:39;15.10;;;11.57;;
7179;SDS011;3631;42.152;24.756;2023-04-06T03:39:13;18.93;;;11.97;;
7179;SDS011;3631;42.152;24.756;2023-04-06T03:41:57;16.47;;;11.40;;
7179;SDS011;3631;42.152;24.756;2023-04-06T03:44:36;14.93;;;11.10;;
7179;SDS011;3631;42.152;24.756;2023-04-06T03:47:32;18.20;;;11.60;;
7179;SDS011;3631;42.152;24.756;2023-04-06T03:50:14;13.23;;;10.90;;
7179;SDS011;3631;42.152;24.756;2023-04-06T03:52:51;18.10;;;12.47;;
7179;SDS011;3631;42.152;24.756;2023-04-06T03:55:29;17.03;;;11.93;;
7179;SDS011;3631;42.152;24.756;2023-04-06T03:58:09;15.13;;;11.10;;
7179;SDS011;3631;42.152;24.756;2023-04-06T04:01:00;15.10;;;11.33;;
7179;SDS011;3631;42.152;24.756;2023-04-06T04:03:44;14.87;;;10.50;;
7179;SDS011;3631;42.152;24.756;2023-04-06T04:06:22;14.07;;;11.07;;
7179;SDS011;3631;42.152;24.756;2023-04-06T04:09:07;14.03;;;10.73;;
7179;SDS011;3631;42.152;24.756;2023-04-06T04:11:41;14.03;;;11.00;;
7179;SDS011;3631;42.152;24.756;2023-04-06T04:14:35;14.07;;;10.43;;
7179;SDS011;3631;42.152;24.756;2023-04-06T04:17:24;13.30;;;10.37;;
7179;SDS011;3631;42.152;24.756;2023-04-06T04:20:15;15.13;;;10.70;;
7179;SDS011;3631;42.152;24.756;2023-04-06T04:22:59;13.60;;;10.17;;
7179;SDS011;3631;42.152;24.756;2023-04-06T04:25:51;13.23;;;10.07;;
7179;SDS011;3631;42.152;24.756;2023-04-06T04:28:42;14.23;;;10.40;;
7179;SDS011;3631;42.152;24.756;2023-04-06T04:31:46;13.43;;;10.03;;
7179;SDS011;3631;42.152;24.756;2023-04-06T04:34:39;15.03;;;9.30;;
7179;SDS011;3631;42.152;24.756;2023-04-06T04:37:41;11.63;;;9.43;;
7179;SDS011;3631;42.152;24.756;2023-04-06T04:40:39;12.17;;;9.20;;
7179;SDS011;3631;42.152;24.756;2023-04-06T04:43:34;16.37;;;9.33;;
7179;SDS011;3631;42.152;24.756;2023-04-06T04:46:42;12.50;;;9.80;;
7179;SDS011;3631;42.152;24.756;2023-04-06T04:49:50;11.67;;;9.63;;
7179;SDS011;3631;42.152;24.756;2023-04-06T04:52:43;13.60;;;9.60;;
7179;SDS011;3631;42.152;24.756;2023-04-06T04:55:45;14.60;;;9.40;;
7179;SDS011;3631;42.152;24.756;2023-04-06T05:01:55;13.40;;;9.17;;
7179;SDS011;3631;42.152;24.756;2023-04-06T05:08:10;12.37;;;9.40;;
7179;SDS011;3631;42.152;24.756;2023-04-06T05:11:10;14.67;;;9.80;;
7179;SDS011;3631;42.152;24.756;2023-04-06T05:14:19;12.87;;;9.27;;
7179;SDS011;3631;42.152;24.756;2023-04-06T05:17:03;10.93;;;8.70;;
7179;SDS011;3631;42.152;24.756;2023-04-06T05:19:59;12.87;;;10.33;;
7179;SDS011;3631;42.152;24.756;2023-04-06T05:26:13;12.40;;;9.40;;
7179;SDS011;3631;42.152;24.756;2023-04-06T05:28:46;13.60;;;8.73;;
7179;SDS011;3631;42.152;24.756;2023-04-06T05:31:36;11.63;;;8.63;;
7179;SDS011;3631;42.152;24.756;2023-04-06T05:34:07;9.93;;;8.33;;
7179;SDS011;3631;42.152;24.756;2023-04-06T05:36:42;11.33;;;9.37;;
7179;SDS011;3631;42.152;24.756;2023-04-06T05:39:13;9.93;;;8.93;;
7179;SDS011;3631;42.152;24.756;2023-04-06T05:45:40;11.37;;;8.90;;
7179;SDS011;3631;42.152;24.756;2023-04-06T05:48:46;12.00;;;9.40;;
7179;SDS011;3631;42.152;24.756;2023-04-06T05:51:58;12.57;;;8.50;;
7179;SDS011;3631;42.152;24.756;2023-04-06T05:54:52;10.83;;;9.20;;
7179;SDS011;3631;42.152;24.756;2023-04-06T05:57:33;12.17;;;8.23;;
7179;SDS011;3631;42.152;24.756;2023-04-06T06:00:22;9.67;;;8.67;;
7179;SDS011;3631;42.152;24.756;2023-04-06T06:03:08;10.70;;;8.43;;
7179;SDS011;3631;42.152;24.756;2023-04-06T06:05:51;9.30;;;8.40;;
7179;SDS011;3631;42.152;24.756;2023-04-06T06:08:51;9.20;;;8.30;;
7179;SDS011;3631;42.152;24.756;2023-04-06T06:11:41;8.27;;;7.47;;
7179;SDS011;3631;42.152;24.756;2023-04-06T06:14:22;8.80;;;8.07;;
7179;SDS011;3631;42.152;24.756;2023-04-06T06:17:12;7.93;;;7.33;;
7179;SDS011;3631;42.152;24.756;2023-04-06T06:20:13;8.13;;;7.53;;
7179;SDS011;3631;42.152;24.756;2023-04-06T06:22:50;8.80;;;7.83;;
7179;SDS011;3631;42.152;24.756;2023-04-06T06:25:30;9.02;;;8.27;;
7179;SDS011;3631;42.152;24.756;2023-04-06T06:28:21;8.60;;;7.85;;
7179;SDS011;3631;42.152;24.756;2023-04-06T06:31:05;8.15;;;7.53;;
7179;SDS011;3631;42.152;24.756;2023-04-06T06:33:44;11.63;;;8.77;;
7179;SDS011;3631;42.152;24.756;2023-04-06T06:36:37;7.63;;;7.07;;
7179;SDS011;3631;42.152;24.756;2023-04-06T06:39:15;7.53;;;6.93;;
7179;SDS011;3631;42.152;24.756;2023-04-06T06:42:25;7.55;;;6.95;;
7179;SDS011;3631;42.152;24.756;2023-04-06T06:45:38;6.90;;;6.40;;
7179;SDS011;3631;42.152;24.756;2023-04-06T06:48:20;6.95;;;6.38;;
7179;SDS011;3631;42.152;24.756;2023-04-06T06:50:47;7.72;;;7.15;;
7179;SDS011;3631;42.152;24.756;2023-04-06T06:53:16;7.07;;;6.38;;
7179;SDS011;3631;42.152;24.756;2023-04-06T06:55:43;7.55;;;6.93;;
7179;SDS011;3631;42.152;24.756;2023-04-06T06:58:10;8.20;;;7.60;;
7179;SDS011;3631;42.152;24.756;2023-04-06T07:00:38;8.38;;;7.78;;
7179;SDS011;3631;42.152;24.756;2023-04-06T07:03:05;8.35;;;7.57;;
7179;SDS011;3631;42.152;24.756;2023-04-06T07:05:32;7.32;;;6.65;;
7179;SDS011;3631;42.152;24.756;2023-04-06T07:08:00;8.05;;;7.40;;
7179;SDS011;3631;42.152;24.756;2023-04-06T07:13:50;8.50;;;7.90;;
7179;SDS011;3631;42.152;24.756;2023-04-06T07:16:22;8.13;;;7.53;;
7179;SDS011;3631;42.152;24.756;2023-04-06T07:19:07;7.57;;;7.07;;
7179;SDS011;3631;42.152;24.756;2023-04-06T07:22:00;7.55;;;7.05;;
7179;SDS011;3631;42.152;24.756;2023-04-06T07:24:49;7.82;;;7.18;;
7179;SDS011;3631;42.152;24.756;2023-04-06T07:31:07;9.50;;;7.43;;
7179;SDS011;3631;42.152;24.756;2023-04-06T07:34:18;7.35;;;6.85;;
7179;SDS011;3631;42.152;24.756;2023-04-06T07:37:10;8.25;;;7.60;;
7179;SDS011;3631;42.152;24.756;2023-04-06T07:40:09;7.85;;;7.20;;
7179;SDS011;3631;42.152;24.756;2023-04-06T07:43:02;7.10;;;6.60;;
7179;SDS011;3631;42.152;24.756;2023-04-06T07:49:10;9.70;;;8.90;;
7179;SDS011;3631;42.152;24.756;2023-04-06T07:52:05;9.70;;;9.00;;
7179;SDS011;3631;42.152;24.756;2023-04-06T07:54:57;9.93;;;8.82;;
7179;SDS011;3631;42.152;24.756;2023-04-06T07:57:42;9.27;;;8.57;;
7179;SDS011;3631;42.152;24.756;2023-04-06T08:00:12;19.25;;;16.60;;
7179;SDS011;3631;42.152;24.756;2023-04-06T08:03:09;10.48;;;9.60;;
7179;SDS011;3631;42.152;24.756;2023-04-06T08:05:52;9.00;;;8.20;;
7179;SDS011;3631;42.152;24.756;2023-04-06T08:08:27;9.10;;;8.15;;
7179;SDS011;3631;42.152;24.756;2023-04-06T08:11:07;7.82;;;7.13;;
7179;SDS011;3631;42.152;24.756;2023-04-06T08:13:43;8.13;;;7.32;;
7179;SDS011;3631;42.152;24.756;2023-04-06T08:16:22;8.57;;;7.88;;
7179;SDS011;3631;42.152;24.756;2023-04-06T08:19:05;10.93;;;9.80;;
7179;SDS011;3631;42.152;24.756;2023-04-06T08:21:58;8.25;;;7.65;;
7179;SDS011;3631;42.152;24.756;2023-04-06T08:24:52;8.07;;;7.53;;
7179;SDS011;3631;42.152;24.756;2023-04-06T08:28:03;9.00;;;8.30;;
7179;SDS011;3631;42.152;24.756;2023-04-06T08:31:02;7.85;;;7.28;;
7179;SDS011;3631;42.152;24.756;2023-04-06T08:33:56;8.05;;;7.45;;
7179;SDS011;3631;42.152;24.756;2023-04-06T08:36:58;7.88;;;7.28;;
7179;SDS011;3631;42.152;24.756;2023-04-06T08:40:14;8.02;;;7.38;;
7179;SDS011;3631;42.152;24.756;2023-04-06T08:43:01;8.98;;;8.27;;
7179;SDS011;3631;42.152;24.756;2023-04-06T08:52:29;7.03;;;6.53;;
7179;SDS011;3631;42.152;24.756;2023-04-06T08:55:48;7.72;;;6.93;;
7179;SDS011;3631;42.152;24.756;2023-04-06T08:58:54;7.65;;;6.95;;
7179;SDS011;3631;42.152;24.756;2023-04-06T09:02:00;6.82;;;6.43;;
7179;SDS011;3631;42.152;24.756;2023-04-06T09:05:04;7.07;;;6.15;;
7179;SDS011;3631;42.152;24.756;2023-04-06T09:08:21;6.13;;;5.72;;
7179;SDS011;3631;42.152;24.756;2023-04-06T09:11:21;5.95;;;5.55;;
7179;SDS011;3631;42.152;24.756;2023-04-06T09:14:36;6.57;;;6.18;;
7179;SDS011;3631;42.152;24.756;2023-04-06T09:17:24;6.80;;;5.47;;
7179;SDS011;3631;42.152;24.756;2023-04-06T09:20:24;5.18;;;4.78;;
7179;SDS011;3631;42.152;24.756;2023-04-06T09:27:11;6.07;;;5.68;;
7179;SDS011;3631;42.152;24.756;2023-04-06T09:30:01;4.78;;;4.47;;
7179;SDS011;3631;42.152;24.756;2023-04-06T09:33:01;4.07;;;3.88;;
7179;SDS011;3631;42.152;24.756;2023-04-06T09:36:06;4.97;;;3.95;;
7179;SDS011;3631;42.152;24.756;2023-04-06T09:38:57;4.57;;;4.28;;
7179;SDS011;3631;42.152;24.756;2023-04-06T09:41:36;4.32;;;4.03;;
7179;SDS011;3631;42.152;24.756;2023-04-06T09:44:28;3.70;;;3.50;;
7179;SDS011;3631;42.152;24.756;2023-04-06T09:47:08;4.68;;;4.38;;
7179;SDS011;3631;42.152;24.756;2023-04-06T09:50:08;4.90;;;4.60;;
7179;SDS011;3631;42.152;24.756;2023-04-06T09:52:54;5.40;;;5.00;;
7179;SDS011;3631;42.152;24.756;2023-04-06T09:55:47;5.43;;;5.03;;
7179;SDS011;3631;42.152;24.756;2023-04-06T09:58:45;5.82;;;5.43;;
7179;SDS011;3631;42.152;24.756;2023-04-06T10:01:58;5.25;;;4.95;;
7179;SDS011;3631;42.152;24.756;2023-04-06T10:04:47;5.85;;;5.35;;
7179;SDS011;3631;42.152;24.756;2023-04-06T10:07:35;5.30;;;4.95;;
7179;SDS011;3631;42.152;24.756;2023-04-06T10:10:11;5.30;;;4.90;;
7179;SDS011;3631;42.152;24.756;2023-04-06T10:12:49;5.63;;;5.23;;
7179;SDS011;3631;42.152;24.756;2023-04-06T10:15:34;5.83;;;5.43;;
7179;SDS011;3631;42.152;24.756;2023-04-06T10:18:25;10.20;;;6.20;;
7179;SDS011;3631;42.152;24.756;2023-04-06T10:21:23;5.80;;;5.40;;
7179;SDS011;3631;42.152;24.756;2023-04-06T10:24:29;5.57;;;5.17;;
7179;SDS011;3631;42.152;24.756;2023-04-06T10:27:10;6.83;;;5.37;;
7179;SDS011;3631;42.152;24.756;2023-04-06T10:29:51;4.80;;;4.40;;
7179;SDS011;3631;42.152;24.756;2023-04-06T10:32:40;5.40;;;4.90;;
7179;SDS011;3631;42.152;24.756;2023-04-06T10:38:35;5.63;;;5.03;;
7179;SDS011;3631;42.152;24.756;2023-04-06T10:41:12;5.70;;;5.20;;
7179;SDS011;3631;42.152;24.756;2023-04-06T10:43:40;4.80;;;4.50;;
7179;SDS011;3631;42.152;24.756;2023-04-06T10:46:09;5.80;;;5.30;;
7179;SDS011;3631;42.152;24.756;2023-04-06T10:48:37;8.00;;;5.43;;
7179;SDS011;3631;42.152;24.756;2023-04-06T10:51:11;5.47;;;5.03;;
7179;SDS011;3631;42.152;24.756;2023-04-06T10:53:39;5.40;;;5.10;;
7179;SDS011;3631;42.152;24.756;2023-04-06T10:56:09;5.20;;;4.80;;
7179;SDS011;3631;42.152;24.756;2023-04-06T10:58:38;5.10;;;4.67;;
7179;SDS011;3631;42.152;24.756;2023-04-06T11:01:10;5.00;;;4.57;;
7179;SDS011;3631;42.152;24.756;2023-04-06T11:03:42;5.20;;;4.63;;
7179;SDS011;3631;42.152;24.756;2023-04-06T11:06:11;5.30;;;4.77;;
7179;SDS011;3631;42.152;24.756;2023-04-06T11:08:45;4.93;;;4.53;;
7179;SDS011;3631;42.152;24.756;2023-04-06T11:11:12;4.30;;;4.00;;
7179;SDS011;3631;42.152;24.756;2023-04-06T11:13:44;4.50;;;4.20;;
7179;SDS011;3631;42.152;24.756;2023-04-06T11:16:14;5.03;;;4.63;;
7179;SDS011;3631;42.152;24.756;2023-04-06T11:18:54;6.27;;;3.90;;
7179;SDS011;3631;42.152;24.756;2023-04-06T11:22:06;4.13;;;3.83;;
7179;SDS011;3631;42.152;24.756;2023-04-06T11:24:34;4.37;;;4.07;;
7179;SDS011;3631;42.152;24.756;2023-04-06T11:27:05;5.83;;;4.77;;
7179;SDS011;3631;42.152;24.756;2023-04-06T11:29:47;5.53;;;4.60;;
7179;SDS011;3631;42.152;24.756;2023-04-06T11:32:38;6.70;;;5.17;;
7179;SDS011;3631;42.152;24.756;2023-04-06T11:35:22;6.47;;;4.67;;
7179;SDS011;3631;42.152;24.756;2023-04-06T11:41:43;45.43;;;7.07;;
7179;SDS011;3631;42.152;24.756;2023-04-06T11:44:49;14.27;;;5.70;;
7179;SDS011;3631;42.152;24.756;2023-04-06T11:47:43;5.10;;;4.70;;
7179;SDS011;3631;42.152;24.756;2023-04-06T11:50:36;5.23;;;4.77;;
7179;SDS011;3631;42.152;24.756;2023-04-06T11:53:20;11.83;;;8.60;;
7179;SDS011;3631;42.152;24.756;2023-04-06T11:56:29;7.53;;;5.17;;
7179;SDS011;3631;42.152;24.756;2023-04-06T11:59:29;6.23;;;5.27;;
7179;SDS011;3631;42.152;24.756;2023-04-06T12:02:03;9.40;;;8.07;;
7179;SDS011;3631;42.152;24.756;2023-04-06T12:04:54;8.70;;;5.13;;
7179;SDS011;3631;42.152;24.756;2023-04-06T12:07:32;5.90;;;5.40;;
7179;SDS011;3631;42.152;24.756;2023-04-06T12:10:21;5.10;;;4.80;;
7179;SDS011;3631;42.152;24.756;2023-04-06T12:13:09;6.10;;;5.10;;
7179;SDS011;3631;42.152;24.756;2023-04-06T12:16:00;5.40;;;4.97;;
7179;SDS011;3631;42.152;24.756;2023-04-06T12:18:53;7.53;;;5.50;;
7179;SDS011;3631;42.152;24.756;2023-04-06T12:21:42;5.97;;;5.37;;
7179;SDS011;3631;42.152;24.756;2023-04-06T12:24:28;6.70;;;5.20;;
7179;SDS011;3631;42.152;24.756;2023-04-06T12:27:17;5.80;;;5.40;;
7179;SDS011;3631;42.152;24.756;2023-04-06T12:30:16;5.87;;;5.23;;
7179;SDS011;3631;42.152;24.756;2023-04-06T12:33:07;5.50;;;5.10;;
7179;SDS011;3631;42.152;24.756;2023-04-06T12:36:01;5.47;;;4.97;;
7179;SDS011;3631;42.152;24.756;2023-04-06T12:38:57;6.27;;;5.77;;
7179;SDS011;3631;42.152;24.756;2023-04-06T12:41:43;6.03;;;5.63;;
7179;SDS011;3631;42.152;24.756;2023-04-06T12:44:32;6.73;;;6.13;;
7179;SDS011;3631;42.152;24.756;2023-04-06T12:47:15;8.23;;;6.20;;
7179;SDS011;3631;42.152;24.756;2023-04-06T12:50:01;6.17;;;5.67;;
7179;SDS011;3631;42.152;24.756;2023-04-06T12:52:36;6.63;;;6.03;;
7179;SDS011;3631;42.152;24.756;2023-04-06T12:55:28;7.23;;;6.63;;
7179;SDS011;3631;42.152;24.756;2023-04-06T12:58:22;7.97;;;7.27;;
7179;SDS011;3631;42.152;24.756;2023-04-06T13:01:17;6.77;;;6.00;;
7179;SDS011;3631;42.152;24.756;2023-04-06T13:04:03;6.70;;;6.20;;
7179;SDS011;3631;42.152;24.756;2023-04-06T13:07:07;6.97;;;6.27;;
7179;SDS011;3631;42.152;24.756;2023-04-06T13:10:00;7.10;;;6.33;;
7179;SDS011;3631;42.152;24.756;2023-04-06T13:12:44;6.53;;;6.03;;
7179;SDS011;3631;42.152;24.756;2023-04-06T13:15:16;7.13;;;6.47;;
7179;SDS011;3631;42.152;24.756;2023-04-06T13:17:56;6.60;;;6.10;;
7179;SDS011;3631;42.152;24.756;2023-04-06T13:20:29;6.80;;;6.30;;
7179;SDS011;3631;42.152;24.756;2023-04-06T13:23:16;15.67;;;11.87;;
7179;SDS011;3631;42.152;24.756;2023-04-06T13:26:03;21.50;;;14.10;;
7179;SDS011;3631;42.152;24.756;2023-04-06T13:28:53;7.53;;;6.83;;
7179;SDS011;3631;42.152;24.756;2023-04-06T13:31:44;5.80;;;5.40;;
7179;SDS011;3631;42.152;24.756;2023-04-06T13:34:35;6.93;;;6.27;;
7179;SDS011;3631;42.152;24.756;2023-04-06T13:37:41;6.33;;;5.87;;
7179;SDS011;3631;42.152;24.756;2023-04-06T13:40:40;8.47;;;7.77;;
7179;SDS011;3631;42.152;24.756;2023-04-06T13:43:35;16.80;;;14.40;;
7179;SDS011;3631;42.152;24.756;2023-04-06T13:46:22;9.33;;;8.53;;
7179;SDS011;3631;42.152;24.756;2023-04-06T13:49:11;8.07;;;7.30;;
7179;SDS011;3631;42.152;24.756;2023-04-06T13:52:05;7.10;;;6.50;;
7179;SDS011;3631;42.152;24.756;2023-04-06T13:55:09;9.30;;;6.70;;
7179;SDS011;3631;42.152;24.756;2023-04-06T13:58:23;6.60;;;6.17;;
7179;SDS011;3631;42.152;24.756;2023-04-06T14:01:23;6.80;;;6.20;;
7179;SDS011;3631;42.152;24.756;2023-04-06T14:04:21;6.23;;;5.63;;
7179;SDS011;3631;42.152;24.756;2023-04-06T14:07:04;10.83;;;7.17;;
7179;SDS011;3631;42.152;24.756;2023-04-06T14:09:58;8.53;;;5.93;;
7179;SDS011;3631;42.152;24.756;2023-04-06T14:12:40;7.27;;;5.57;;
7179;SDS011;3631;42.152;24.756;2023-04-06T14:15:20;8.50;;;5.57;;
7179;SDS011;3631;42.152;24.756;2023-04-06T14:17:49;6.07;;;5.67;;
7179;SDS011;3631;42.152;24.756;2023-04-06T14:20:22;5.73;;;5.33;;
7179;SDS011;3631;42.152;24.756;2023-04-06T14:22:53;6.17;;;5.67;;
7179;SDS011;3631;42.152;24.756;2023-04-06T14:25:27;5.57;;;5.17;;
7179;SDS011;3631;42.152;24.756;2023-04-06T14:28:04;6.30;;;5.00;;
7179;SDS011;3631;42.152;24.756;2023-04-06T14:31:10;6.03;;;5.53;;
7179;SDS011;3631;42.152;24.756;2023-04-06T14:34:00;6.43;;;5.93;;
7179;SDS011;3631;42.152;24.756;2023-04-06T14:36:57;6.90;;;6.30;;
7179;SDS011;3631;42.152;24.756;2023-04-06T14:39:50;17.83;;;6.00;;
7179;SDS011;3631;42.152;24.756;2023-04-06T14:42:45;7.87;;;6.70;;
7179;SDS011;3631;42.152;24.756;2023-04-06T14:45:32;7.37;;;6.17;;
7179;SDS011;3631;42.152;24.756;2023-04-06T14:48:27;7.37;;;5.77;;
7179;SDS011;3631;42.152;24.756;2023-04-06T14:51:02;7.00;;;6.40;;
7179;SDS011;3631;42.152;24.756;2023-04-06T14:53:42;6.53;;;5.47;;
7179;SDS011;3631;42.152;24.756;2023-04-06T14:56:22;6.37;;;5.77;;
7179;SDS011;3631;42.152;24.756;2023-04-06T14:58:58;6.47;;;5.97;;
7179;SDS011;3631;42.152;24.756;2023-04-06T15:01:37;12.50;;;6.77;;
7179;SDS011;3631;42.152;24.756;2023-04-06T15:04:29;7.27;;;6.67;;
7179;SDS011;3631;42.152;24.756;2023-04-06T15:07:24;8.00;;;6.33;;
7179;SDS011;3631;42.152;24.756;2023-04-06T15:10:09;6.70;;;6.17;;
7179;SDS011;3631;42.152;24.756;2023-04-06T15:12:52;7.00;;;6.33;;
7179;SDS011;3631;42.152;24.756;2023-04-06T15:15:38;7.07;;;5.83;;
7179;SDS011;3631;42.152;24.756;2023-04-06T15:18:52;6.53;;;6.00;;
7179;SDS011;3631;42.152;24.756;2023-04-06T15:28:11;6.30;;;5.70;;
7179;SDS011;3631;42.152;24.756;2023-04-06T15:30:51;6.97;;;6.20;;
7179;SDS011;3631;42.152;24.756;2023-04-06T15:33:28;6.80;;;6.10;;
7179;SDS011;3631;42.152;24.756;2023-04-06T15:36:26;6.40;;;5.90;;
7179;SDS011;3631;42.152;24.756;2023-04-06T15:39:22;7.20;;;5.83;;
7179;SDS011;3631;42.152;24.756;2023-04-06T15:42:21;6.27;;;5.77;;
7179;SDS011;3631;42.152;24.756;2023-04-06T15:45:04;6.67;;;6.17;;
7179;SDS011;3631;42.152;24.756;2023-04-06T15:47:44;10.10;;;5.50;;
7179;SDS011;3631;42.152;24.756;2023-04-06T15:50:26;12.47;;;6.23;;
7179;SDS011;3631;42.152;24.756;2023-04-06T15:53:05;6.10;;;5.70;;
7179;SDS011;3631;42.152;24.756;2023-04-06T15:55:44;6.50;;;6.00;;
7179;SDS011;3631;42.152;24.756;2023-04-06T15:58:24;6.67;;;6.17;;
7179;SDS011;3631;42.152;24.756;2023-04-06T16:01:10;7.40;;;6.70;;
7179;SDS011;3631;42.152;24.756;2023-04-06T16:03:54;6.43;;;5.93;;
7179;SDS011;3631;42.152;24.756;2023-04-06T16:06:46;7.17;;;6.40;;
7179;SDS011;3631;42.152;24.756;2023-04-06T16:09:22;6.60;;;6.10;;
7179;SDS011;3631;42.152;24.756;2023-04-06T16:12:12;7.10;;;6.50;;
7179;SDS011;3631;42.152;24.756;2023-04-06T16:14:54;7.33;;;6.33;;
7179;SDS011;3631;42.152;24.756;2023-04-06T16:17:29;7.73;;;7.10;;
7179;SDS011;3631;42.152;24.756;2023-04-06T16:20:12;7.07;;;6.47;;
7179;SDS011;3631;42.152;24.756;2023-04-06T16:23:01;9.10;;;8.17;;
7179;SDS011;3631;42.152;24.756;2023-04-06T16:25:53;8.00;;;7.00;;
7179;SDS011;3631;42.152;24.756;2023-04-06T16:28:46;7.27;;;6.67;;
7179;SDS011;3631;42.152;24.756;2023-04-06T16:31:28;7.67;;;6.90;;
7179;SDS011;3631;42.152;24.756;2023-04-06T16:34:15;7.37;;;6.67;;
7179;SDS011;3631;42.152;24.756;2023-04-06T16:36:57;6.93;;;6.43;;
7179;SDS011;3631;42.152;24.756;2023-04-06T16:39:51;9.60;;;7.10;;
7179;SDS011;3631;42.152;24.756;2023-04-06T16:42:26;7.57;;;6.87;;
7179;SDS011;3631;42.152;24.756;2023-04-06T16:45:14;8.33;;;7.63;;
7179;SDS011;3631;42.152;24.756;2023-04-06T16:47:54;8.30;;;7.50;;
7179;SDS011;3631;42.152;24.756;2023-04-06T16:50:23;11.73;;;7.83;;
7179;SDS011;3631;42.152;24.756;2023-04-06T16:52:55;7.80;;;7.03;;
7179;SDS011;3631;42.152;24.756;2023-04-06T16:55:38;8.83;;;7.10;;
7179;SDS011;3631;42.152;24.756;2023-04-06T16:58:23;8.70;;;7.50;;
7179;SDS011;3631;42.152;24.756;2023-04-06T17:01:04;8.63;;;7.83;;
7179;SDS011;3631;42.152;24.756;2023-04-06T17:04:02;8.33;;;7.63;;
7179;SDS011;3631;42.152;24.756;2023-04-06T17:06:45;7.83;;;7.13;;
7179;SDS011;3631;42.152;24.756;2023-04-06T17:09:37;11.83;;;8.03;;
7179;SDS011;3631;42.152;24.756;2023-04-06T17:12:31;8.33;;;7.53;;
7179;SDS011;3631;42.152;24.756;2023-04-06T17:15:14;12.00;;;8.10;;
7179;SDS011;3631;42.152;24.756;2023-04-06T17:18:03;8.33;;;7.53;;
7179;SDS011;3631;42.152;24.756;2023-04-06T17:23:53;8.33;;;7.53;;
7179;SDS011;3631;42.152;24.756;2023-04-06T17:26:34;7.77;;;7.07;;
7179;SDS011;3631;42.152;24.756;2023-04-06T17:29:11;8.30;;;7.60;;
7179;SDS011;3631;42.152;24.756;2023-04-06T17:31:42;10.93;;;9.83;;
7179;SDS011;3631;42.152;24.756;2023-04-06T17:34:12;11.00;;;9.00;;
7179;SDS011;3631;42.152;24.756;2023-04-06T17:36:53;8.27;;;7.47;;
7179;SDS011;3631;42.152;24.756;2023-04-06T17:39:29;8.10;;;7.40;;
7179;SDS011;3631;42.152;24.756;2023-04-06T17:42:03;8.40;;;7.63;;
7179;SDS011;3631;42.152;24.756;2023-04-06T17:44:37;13.37;;;8.03;;
7179;SDS011;3631;42.152;24.756;2023-04-06T17:47:12;8.47;;;7.77;;
7179;SDS011;3631;42.152;24.756;2023-04-06T17:49:44;8.77;;;7.77;;
7179;SDS011;3631;42.152;24.756;2023-04-06T17:52:40;8.27;;;7.37;;
7179;SDS011;3631;42.152;24.756;2023-04-06T17:55:22;9.47;;;7.97;;
7179;SDS011;3631;42.152;24.756;2023-04-06T17:57:54;10.37;;;8.43;;
7179;SDS011;3631;42.152;24.756;2023-04-06T18:00:30;12.80;;;10.60;;
7179;SDS011;3631;42.152;24.756;2023-04-06T18:03:14;9.27;;;8.47;;
7179;SDS011;3631;42.152;24.756;2023-04-06T18:05:47;11.10;;;9.10;;
7179;SDS011;3631;42.152;24.756;2023-04-06T18:08:31;10.03;;;8.67;;